Time;durP1;ratioP1;P1;durP2;ratioP2;P2;SDS_P1;SDS_P2;PMS_P1;PMS_P2;Temp;Humidity;BMP_temperature;BMP_pressure;BME280_temperature;BME280_humidity;BME280_pressure;Samples;Min_cycle;Max_cycle;Signal;HPM_P1;HPM_P2
2023/02/21 02:14:13;;;;;;;14.63;6.95;;;10.80;99.90;;;;;;5030295;28;20128;-63
2023/02/21 02:17:08;;;;;;;12.82;7.47;;;10.70;99.90;;;;;;5030163;28;20039;-63
2023/02/21 02:19:42;;;;;;;11.00;6.75;;;10.70;99.90;;;;;;5031623;28;20505;-63
2023/02/21 02:22:19;;;;;;;11.70;7.38;;;10.80;99.90;;;;;;5015344;28;20025;-63
2023/02/21 02:25:20;;;;;;;10.52;6.38;;;10.80;99.90;;;;;;5014113;28;20806;-62
2023/02/21 02:27:57;;;;;;;10.25;6.28;;;10.90;99.90;;;;;;5018396;28;20033;-63
2023/02/21 02:30:39;;;;;;;11.70;6.82;;;10.90;99.90;;;;;;5029618;28;20529;-63
2023/02/21 02:33:09;;;;;;;11.52;7.13;;;11.00;99.90;;;;;;5020037;28;20049;-63
2023/02/21 02:35:45;;;;;;;10.18;6.85;;;10.90;99.90;;;;;;5034093;28;20036;-63
2023/02/21 02:38:40;;;;;;;13.68;7.88;;;10.80;99.90;;;;;;5032127;28;20537;-63
2023/02/21 02:41:41;;;;;;;13.25;7.75;;;10.90;99.90;;;;;;5018659;28;20045;-63
2023/02/21 02:44:25;;;;;;;10.95;6.72;;;10.90;99.90;;;;;;4995292;28;20038;-63
2023/02/21 02:46:54;;;;;;;9.43;6.53;;;10.90;99.90;;;;;;5010207;28;20605;-63
2023/02/21 02:49:24;;;;;;;11.35;7.45;;;10.90;99.90;;;;;;5031200;28;20048;-63
2023/02/21 02:51:52;;;;;;;11.13;7.22;;;10.90;99.90;;;;;;5013170;28;20032;-63
2023/02/21 02:54:21;;;;;;;12.05;7.45;;;10.90;99.90;;;;;;5012537;28;20036;-62
2023/02/21 02:56:47;;;;;;;13.00;8.23;;;11.00;99.90;;;;;;5037531;28;20041;-63
2023/02/21 02:59:25;;;;;;;14.18;9.20;;;10.90;99.90;;;;;;5015762;28;20443;-63
2023/02/21 03:02:21;;;;;;;11.63;8.75;;;10.90;99.90;;;;;;5019478;28;20107;-63
2023/02/21 03:05:09;;;;;;;10.35;6.45;;;10.90;99.90;;;;;;5030843;28;20024;-63
2023/02/21 03:07:50;;;;;;;15.63;9.13;;;11.00;99.90;;;;;;5029057;28;20129;-63
2023/02/21 03:10:26;;;;;;;;;;;11.10;99.90;;;;;;5033710;28;20056;-63
2023/02/21 03:13:12;;;;;;;12.07;7.47;;;11.10;99.90;;;;;;5019168;28;19912;-62
2023/02/21 03:15:54;;;;;;;11.02;7.22;;;11.00;99.90;;;;;;5013377;28;20914;-63
2023/02/21 03:18:32;;;;;;;13.38;7.43;;;11.10;99.90;;;;;;5010080;28;20053;-63
2023/02/21 03:21:01;;;;;;;12.63;8.13;;;11.10;99.90;;;;;;5018565;28;20025;-63
2023/02/21 03:23:30;;;;;;;13.02;8.15;;;11.10;99.90;;;;;;5034349;28;20071;-63
2023/02/21 03:26:03;;;;;;;13.10;8.02;;;11.10;99.90;;;;;;5031857;28;20052;-63
2023/02/21 03:28:31;;;;;;;12.82;8.40;;;11.10;99.90;;;;;;5014932;28;20096;-63
2023/02/21 03:30:59;;;;;;;13.45;8.68;;;11.20;99.90;;;;;;5031428;28;20034;-63
2023/02/21 03:33:25;;;;;;;12.32;8.40;;;11.20;99.90;;;;;;5030232;28;20029;-63
2023/02/21 03:35:52;;;;;;;13.38;8.63;;;11.30;99.90;;;;;;5011935;28;20029;-63
2023/02/21 03:38:18;;;;;;;12.63;8.45;;;11.30;99.90;;;;;;5015214;28;20029;-63
2023/02/21 03:40:44;;;;;;;12.70;7.93;;;11.40;99.90;;;;;;5015703;28;20029;-63
2023/02/21 03:43:10;;;;;;;16.90;10.02;;;11.40;99.90;;;;;;5011121;28;20505;-63
2023/02/21 03:45:48;;;;;;;17.27;10.40;;;11.40;99.90;;;;;;5030466;28;20029;-63
2023/02/21 03:48:17;;;;;;;15.75;9.35;;;11.40;99.90;;;;;;5018322;28;20075;-63
2023/02/21 03:50:43;;;;;;;13.05;8.40;;;11.40;99.90;;;;;;5009752;28;20076;-63
2023/02/21 03:53:10;;;;;;;15.18;8.45;;;11.40;99.90;;;;;;5013639;28;20029;-63
2023/02/21 03:55:38;;;;;;;13.73;7.97;;;11.30;99.90;;;;;;5014749;28;20036;-63
2023/02/21 03:58:09;;;;;;;17.42;8.85;;;11.30;99.90;;;;;;5014619;28;20044;-63
2023/02/21 04:00:36;;;;;;;14.85;9.13;;;11.30;99.90;;;;;;5020422;28;20053;-63
2023/02/21 04:03:02;;;;;;;16.27;9.20;;;11.20;99.90;;;;;;5019757;28;20057;-63
2023/02/21 04:05:38;;;;;;;15.98;9.15;;;11.30;99.90;;;;;;5017547;28;20047;-63
2023/02/21 04:08:04;;;;;;;14.48;9.13;;;11.30;99.90;;;;;;5017383;28;20762;-63
2023/02/21 04:10:31;;;;;;;14.50;8.75;;;11.30;99.90;;;;;;5015403;28;20079;-63
2023/02/21 04:12:57;;;;;;;16.88;8.98;;;11.30;99.90;;;;;;5016289;28;20043;-63
2023/02/21 04:15:23;;;;;;;16.08;9.32;;;11.30;99.90;;;;;;5012352;28;20033;-63
2023/02/21 04:17:49;;;;;;;14.27;9.15;;;11.30;99.90;;;;;;5032154;28;20055;-63
2023/02/21 04:20:15;;;;;;;13.93;8.68;;;11.30;99.90;;;;;;5016921;28;20059;-63
2023/02/21 04:22:46;;;;;;;16.38;9.57;;;11.30;99.90;;;;;;5017061;28;20029;-63
2023/02/21 04:25:13;;;;;;;14.48;9.05;;;11.30;99.90;;;;;;5022276;28;20048;-62
2023/02/21 04:27:45;;;;;;;15.13;8.95;;;11.20;99.90;;;;;;5018132;28;20063;-63
2023/02/21 04:30:11;;;;;;;16.95;9.75;;;11.30;99.90;;;;;;5013750;28;20033;-63
2023/02/21 04:32:37;;;;;;;17.20;10.13;;;11.20;99.90;;;;;;5015720;28;20401;-63
2023/02/21 04:35:08;;;;;;;15.65;9.77;;;11.30;99.90;;;;;;5016573;28;20463;-63
2023/02/21 04:37:36;;;;;;;18.13;10.82;;;11.30;99.90;;;;;;5012979;28;20819;-63
2023/02/21 04:40:02;;;;;;;15.65;9.48;;;11.30;99.90;;;;;;5015848;28;20522;-63
2023/02/21 04:42:30;;;;;;;17.25;9.50;;;11.20;99.90;;;;;;5015255;28;20120;-63
2023/02/21 04:44:56;;;;;;;13.52;8.70;;;11.30;99.90;;;;;;5033955;28;20031;-63
2023/02/21 04:47:22;;;;;;;17.42;9.95;;;11.20;99.90;;;;;;5016122;28;20144;-63
2023/02/21 04:49:50;;;;;;;15.00;9.55;;;11.30;99.90;;;;;;5035783;28;20116;-62
2023/02/21 04:52:19;;;;;;;16.00;9.48;;;11.30;99.90;;;;;;5033022;28;20048;-63
2023/02/21 04:54:46;;;;;;;15.27;8.93;;;11.30;99.90;;;;;;5032738;28;20556;-63
2023/02/21 04:57:12;;;;;;;13.98;9.32;;;11.40;99.90;;;;;;5034829;28;20043;-62
2023/02/21 04:59:37;;;;;;;14.10;8.38;;;11.30;99.90;;;;;;5031209;28;20704;-62
2023/02/21 05:02:05;;;;;;;14.68;8.90;;;11.40;99.90;;;;;;5032049;28;20056;-62
2023/02/21 05:04:31;;;;;;;14.52;8.32;;;11.30;99.90;;;;;;5034740;28;20037;-62
2023/02/21 05:07:00;;;;;;;13.13;8.23;;;11.40;99.90;;;;;;5035183;28;20033;-62
2023/02/21 05:09:25;;;;;;;13.07;7.90;;;11.40;99.90;;;;;;5030775;28;20124;-62
2023/02/21 05:11:51;;;;;;;14.15;8.20;;;11.40;99.90;;;;;;5030588;28;20040;-62
2023/02/21 05:14:17;;;;;;;12.55;8.02;;;11.40;99.90;;;;;;5033576;28;20079;-62
2023/02/21 05:16:43;;;;;;;14.40;8.10;;;11.30;99.90;;;;;;5033354;28;20123;-62
2023/02/21 05:19:09;;;;;;;12.05;7.60;;;11.30;99.90;;;;;;5031989;28;20056;-62
2023/02/21 05:21:38;;;;;;;14.07;7.68;;;11.30;99.90;;;;;;5033231;28;20455;-62
2023/02/21 05:24:05;;;;;;;12.77;7.80;;;11.30;99.90;;;;;;5029508;28;20034;-62
2023/02/21 05:26:36;;;;;;;11.30;7.22;;;11.20;99.90;;;;;;5037101;28;20033;-62
2023/02/21 05:29:03;;;;;;;13.80;7.25;;;11.30;99.90;;;;;;5037997;28;20037;-62
2023/02/21 05:31:29;;;;;;;12.60;7.53;;;11.30;99.90;;;;;;5035968;28;20033;-62
2023/02/21 05:33:56;;;;;;;10.15;6.97;;;11.30;99.90;;;;;;5033582;28;20421;-62
2023/02/21 05:36:24;;;;;;;12.23;6.90;;;11.20;99.90;;;;;;5034427;28;20480;-62
2023/02/21 05:38:53;;;;;;;13.10;7.03;;;11.30;99.90;;;;;;5034716;28;20096;-62
2023/02/21 05:41:19;;;;;;;12.10;7.07;;;11.30;99.90;;;;;;5031596;28;20475;-62
2023/02/21 05:43:46;;;;;;;14.95;7.00;;;11.30;99.90;;;;;;5031134;28;20771;-62
2023/02/21 05:46:31;;;;;;;12.63;7.13;;;11.40;99.90;;;;;;5034470;28;20031;-62
2023/02/21 05:48:59;;;;;;;13.93;7.05;;;11.40;99.90;;;;;;5031372;28;20048;-63
2023/02/21 05:51:26;;;;;;;12.10;7.07;;;11.40;99.90;;;;;;5034213;28;20389;-62
2023/02/21 05:53:52;;;;;;;10.73;6.90;;;11.30;99.90;;;;;;5035807;28;20761;-62
2023/02/21 05:56:20;;;;;;;12.77;7.40;;;11.30;99.90;;;;;;5032057;28;20071;-62
2023/02/21 05:58:46;;;;;;;14.48;7.28;;;11.30;99.90;;;;;;5032207;28;20737;-62
2023/02/21 06:01:12;;;;;;;13.25;6.97;;;11.20;99.90;;;;;;5032574;28;20493;-62
2023/02/21 06:03:38;;;;;;;13.32;7.53;;;11.30;99.90;;;;;;5033511;28;20135;-62
2023/02/21 06:06:03;;;;;;;13.65;7.63;;;11.20;99.90;;;;;;5038927;28;20041;-62
2023/02/21 06:08:29;;;;;;;11.13;7.50;;;11.10;99.90;;;;;;5031300;28;20049;-62
2023/02/21 06:10:55;;;;;;;11.93;7.57;;;11.10;99.90;;;;;;5035256;28;20473;-63
2023/02/21 06:13:21;;;;;;;14.55;7.55;;;11.10;99.90;;;;;;5033751;28;20176;-62
2023/02/21 06:15:47;;;;;;;11.65;7.55;;;11.10;99.90;;;;;;5031773;28;20055;-62
2023/02/21 06:18:14;;;;;;;11.10;6.80;;;11.20;99.90;;;;;;5037533;28;20489;-62
2023/02/21 06:20:40;;;;;;;13.07;8.00;;;11.10;99.90;;;;;;5032677;28;20034;-61
2023/02/21 06:23:06;;;;;;;13.27;7.75;;;11.10;99.90;;;;;;5032662;28;20040;-62
2023/02/21 06:25:31;;;;;;;11.27;6.43;;;11.10;99.90;;;;;;5031054;28;20568;-62
2023/02/21 06:27:57;;;;;;;11.90;7.72;;;11.10;99.90;;;;;;5037854;28;20431;-62
2023/02/21 06:30:23;;;;;;;13.20;7.47;;;11.10;99.90;;;;;;5034881;28;20566;-62
2023/02/21 06:32:49;;;;;;;10.38;7.00;;;11.10;99.90;;;;;;5031364;28;20070;-62
2023/02/21 06:35:15;;;;;;;11.90;6.82;;;11.10;99.90;;;;;;5034082;28;20108;-62
2023/02/21 06:37:41;;;;;;;11.68;7.30;;;11.10;99.90;;;;;;5035052;28;20756;-62
2023/02/21 06:40:07;;;;;;;12.13;6.93;;;11.10;99.90;;;;;;5034150;28;20032;-62
2023/02/21 06:42:33;;;;;;;11.85;7.00;;;11.00;99.90;;;;;;5029248;28;20033;-62
2023/02/21 06:44:59;;;;;;;12.57;7.82;;;11.00;99.90;;;;;;5034537;28;20476;-62
2023/02/21 06:47:25;;;;;;;12.88;7.22;;;11.10;99.90;;;;;;5028772;28;20071;-62
2023/02/21 06:49:50;;;;;;;14.07;7.22;;;11.10;99.90;;;;;;5035293;28;20045;-62
2023/02/21 06:52:16;;;;;;;9.23;6.13;;;11.10;99.90;;;;;;5032934;28;20041;-62
2023/02/21 06:54:42;;;;;;;11.52;6.70;;;11.10;99.90;;;;;;5038637;28;20488;-62
2023/02/21 06:57:08;;;;;;;10.43;6.55;;;11.20;99.90;;;;;;5032869;28;20532;-62
2023/02/21 06:59:33;;;;;;;10.70;6.82;;;11.10;99.90;;;;;;5034164;28;20434;-62
2023/02/21 07:02:01;;;;;;;10.55;6.38;;;11.20;99.90;;;;;;5030977;28;20029;-62
2023/02/21 07:04:27;;;;;;;10.13;6.53;;;11.20;99.90;;;;;;5034553;28;20047;-63
2023/02/21 07:06:53;;;;;;;10.05;6.63;;;11.20;99.90;;;;;;5032379;28;20036;-62
2023/02/21 07:09:19;;;;;;;9.85;6.07;;;11.20;99.90;;;;;;5028858;28;20044;-62
2023/02/21 07:11:45;;;;;;;11.48;7.00;;;11.20;99.90;;;;;;5036556;28;20025;-62
2023/02/21 07:14:11;;;;;;;9.82;6.53;;;11.30;99.90;;;;;;5027916;28;20118;-62
2023/02/21 07:16:37;;;;;;;11.52;7.03;;;11.30;99.90;;;;;;5032678;28;20519;-62
2023/02/21 07:19:03;;;;;;;12.30;7.30;;;11.30;99.90;;;;;;5031539;28;20020;-62
2023/02/21 07:21:29;;;;;;;9.80;6.45;;;11.20;99.90;;;;;;5030140;28;20675;-62
2023/02/21 07:23:55;;;;;;;11.52;7.28;;;11.20;99.90;;;;;;5032392;28;20033;-62
2023/02/21 07:26:21;;;;;;;13.88;7.95;;;11.20;99.90;;;;;;5031947;28;20033;-62
2023/02/21 07:28:48;;;;;;;11.27;6.70;;;11.30;99.90;;;;;;5038048;28;20870;-62
2023/02/21 07:31:14;;;;;;;10.60;6.03;;;11.30;99.90;;;;;;5040668;28;20889;-62
2023/02/21 07:33:40;;;;;;;12.55;7.03;;;11.30;99.90;;;;;;5038531;28;20116;-62
2023/02/21 07:36:06;;;;;;;9.88;6.18;;;11.30;99.90;;;;;;5037791;28;20818;-62
2023/02/21 07:38:32;;;;;;;10.73;6.80;;;11.30;99.90;;;;;;5031107;28;20076;-62
2023/02/21 07:41:00;;;;;;;10.32;6.30;;;11.30;99.90;;;;;;5032889;28;20132;-62
2023/02/21 07:43:28;;;;;;;10.60;6.55;;;11.30;99.90;;;;;;5032518;28;20036;-62
2023/02/21 07:45:54;;;;;;;11.23;6.78;;;11.30;99.90;;;;;;5034970;28;20029;-62
2023/02/21 07:48:20;;;;;;;12.05;6.55;;;11.30;99.90;;;;;;5032844;28;20044;-62
2023/02/21 07:50:46;;;;;;;10.73;6.63;;;11.30;99.90;;;;;;5033313;28;20041;-62
2023/02/21 07:53:13;;;;;;;10.43;6.55;;;11.30;99.90;;;;;;5036688;28;20064;-62
2023/02/21 07:55:39;;;;;;;10.38;6.13;;;11.30;99.90;;;;;;5035198;28;20114;-62
2023/02/21 07:58:05;;;;;;;8.65;6.05;;;11.40;99.90;;;;;;5035320;28;20045;-62
2023/02/21 08:00:32;;;;;;;11.43;6.68;;;11.40;99.90;;;;;;5036440;28;20025;-63
2023/02/21 08:02:58;;;;;;;9.13;6.10;;;11.40;99.90;;;;;;5031560;28;20048;-62
2023/02/21 08:05:24;;;;;;;10.75;5.97;;;11.50;99.90;;;;;;5032349;28;20107;-62
2023/02/21 08:07:50;;;;;;;9.65;5.80;;;11.50;99.90;;;;;;5034569;28;20082;-62
2023/02/21 08:10:24;;;;;;;9.05;5.72;;;11.40;99.90;;;;;;5032604;28;20045;-62
2023/02/21 08:12:50;;;;;;;10.20;5.45;;;11.40;99.90;;;;;;5035776;28;20033;-62
2023/02/21 08:15:17;;;;;;;10.73;5.53;;;11.40;99.90;;;;;;5032517;28;20032;-62
2023/02/21 08:17:43;;;;;;;9.13;4.93;;;11.40;99.90;;;;;;5031378;28;20033;-62
2023/02/21 08:20:09;;;;;;;11.00;6.38;;;11.40;99.90;;;;;;5039675;28;20037;-62
2023/02/21 08:22:36;;;;;;;8.57;5.10;;;11.40;99.90;;;;;;5034211;28;20033;-62
2023/02/21 08:25:02;;;;;;;8.75;5.20;;;11.50;99.90;;;;;;5033500;28;20584;-63
2023/02/21 08:27:28;;;;;;;7.70;4.57;;;11.50;99.90;;;;;;5036002;28;20037;-62
2023/02/21 08:29:54;;;;;;;5.60;3.95;;;11.50;99.90;;;;;;5034533;28;20036;-62
2023/02/21 08:32:20;;;;;;;9.32;5.95;;;11.50;99.90;;;;;;5032350;28;20071;-62
2023/02/21 08:34:46;;;;;;;6.22;4.63;;;11.60;99.90;;;;;;5031694;28;20033;-62
2023/02/21 08:37:19;;;;;;;7.53;4.25;;;11.50;99.90;;;;;;5036639;28;20080;-62
2023/02/21 08:39:46;;;;;;;9.80;5.85;;;11.50;99.90;;;;;;5034994;28;20043;-62
2023/02/21 08:42:13;;;;;;;6.07;3.92;;;11.50;99.90;;;;;;5034062;28;20037;-63
2023/02/21 08:44:41;;;;;;;4.53;2.88;;;11.50;99.90;;;;;;5035367;28;20111;-62
2023/02/21 08:47:07;;;;;;;5.65;3.50;;;11.50;99.90;;;;;;5037259;28;20056;-62
2023/02/21 08:49:32;;;;;;;5.18;3.20;;;11.50;99.90;;;;;;5038336;28;20183;-63
2023/02/21 08:51:58;;;;;;;5.00;2.90;;;11.50;99.90;;;;;;5034718;28;20044;-62
2023/02/21 08:54:24;;;;;;;4.75;3.10;;;11.50;99.90;;;;;;5031248;28;20040;-63
2023/02/21 08:56:50;;;;;;;3.20;2.25;;;11.50;99.90;;;;;;5037574;28;20413;-62
2023/02/21 08:59:16;;;;;;;11.88;7.10;;;11.50;99.90;;;;;;5039528;28;20090;-62
2023/02/21 09:01:42;;;;;;;4.13;2.67;;;11.70;99.90;;;;;;5031029;28;20049;-62
2023/02/21 09:04:08;;;;;;;3.42;2.20;;;11.70;99.90;;;;;;5031169;28;20063;-62
2023/02/21 09:06:33;;;;;;;3.65;2.53;;;11.60;99.90;;;;;;5035386;28;20075;-63
2023/02/21 09:08:59;;;;;;;2.80;2.00;;;11.60;99.90;;;;;;5034370;28;20748;-62
2023/02/21 09:11:25;;;;;;;2.33;1.92;;;11.70;99.90;;;;;;5040701;28;20043;-62
2023/02/21 09:13:53;;;;;;;2.50;1.85;;;11.70;99.90;;;;;;5036757;28;20017;-62
2023/02/21 09:16:19;;;;;;;2.25;1.98;;;11.70;99.90;;;;;;5033986;28;20033;-62
2023/02/21 09:18:55;;;;;;;4.28;2.10;;;11.70;99.90;;;;;;5033047;28;20048;-62
2023/02/21 09:21:22;;;;;;;4.53;2.63;;;11.70;99.90;;;;;;5034298;28;20033;-62
2023/02/21 09:23:51;;;;;;;4.53;2.15;;;11.70;99.90;;;;;;5037048;28;20056;-63
2023/02/21 09:26:17;;;;;;;6.10;2.53;;;11.80;99.90;;;;;;5029526;28;20412;-62
2023/02/21 09:28:43;;;;;;;3.78;2.30;;;11.80;99.90;;;;;;5030351;28;20041;-62
2023/02/21 09:31:09;;;;;;;2.88;1.90;;;11.90;99.90;;;;;;5019578;28;20118;-62
2023/02/21 09:33:39;;;;;;;2.92;2.15;;;11.80;99.90;;;;;;5012721;28;20557;-63
2023/02/21 09:36:08;;;;;;;2.53;1.80;;;11.80;99.90;;;;;;5033166;28;20040;-62
2023/02/21 09:38:34;;;;;;;3.17;1.55;;;11.70;99.90;;;;;;5033992;28;20065;-62
2023/02/21 09:41:04;;;;;;;2.38;1.70;;;11.70;99.90;;;;;;5032302;28;20116;-62
2023/02/21 09:43:39;;;;;;;2.28;1.48;;;11.70;99.90;;;;;;5035111;28;20037;-63
2023/02/21 09:46:12;;;;;;;1.25;0.88;;;11.70;99.90;;;;;;5011419;28;20115;-62
2023/02/21 09:48:39;;;;;;;2.92;1.00;;;11.60;99.90;;;;;;5033516;28;20142;-63
2023/02/21 09:51:08;;;;;;;0.95;0.60;;;11.50;99.90;;;;;;5033642;28;20029;-62
2023/02/21 09:53:39;;;;;;;1.30;0.60;;;11.50;99.90;;;;;;5026241;28;20048;-62
2023/02/21 09:56:27;;;;;;;0.80;0.70;;;11.50;99.90;;;;;;5032175;28;20120;-62
2023/02/21 09:58:53;;;;;;;0.40;0.40;;;11.60;99.90;;;;;;5029981;28;20032;-63
2023/02/21 10:01:52;;;;;;;0.47;0.35;;;11.60;99.90;;;;;;5037856;28;20036;-62
2023/02/21 10:04:38;;;;;;;1.65;0.40;;;11.70;99.90;;;;;;5029600;28;20044;-62
2023/02/21 10:07:20;;;;;;;0.57;0.20;;;11.70;99.90;;;;;;5034280;28;20111;-62
2023/02/21 10:09:51;;;;;;;1.77;0.57;;;11.70;99.90;;;;;;5034076;28;20110;-62
2023/02/21 10:12:23;;;;;;;0.80;0.30;;;11.80;99.90;;;;;;5032590;28;20029;-62
2023/02/21 10:15:00;;;;;;;0.60;0.35;;;11.80;99.90;;;;;;5032899;28;20333;-62
2023/02/21 10:17:48;;;;;;;3.92;0.30;;;11.80;99.90;;;;;;5028788;28;20044;-62
2023/02/21 10:20:41;;;;;;;0.50;0.30;;;11.90;99.90;;;;;;4967135;28;20086;-62
2023/02/21 10:23:26;;;;;;;0.20;0.20;;;12.00;99.90;;;;;;5030869;28;20044;-63
2023/02/21 10:25:58;;;;;;;1.27;0.50;;;12.10;99.90;;;;;;5034345;28;20032;-63
2023/02/21 10:28:25;;;;;;;0.50;0.50;;;12.20;99.90;;;;;;5025305;28;20033;-63
2023/02/21 10:31:01;;;;;;;4.57;0.65;;;12.30;99.90;;;;;;5034915;28;20453;-62
2023/02/21 10:33:27;;;;;;;2.30;0.55;;;12.40;99.90;;;;;;5012266;28;20041;-63
2023/02/21 10:35:53;;;;;;;1.30;0.52;;;12.50;99.90;;;;;;5015535;28;20049;-63
2023/02/21 10:38:24;;;;;;;1.48;0.68;;;12.50;99.90;;;;;;5033217;28;20052;-62
2023/02/21 10:40:57;;;;;;;3.22;1.63;;;12.70;99.90;;;;;;5036236;28;20116;-63
2023/02/21 10:43:43;;;;;;;3.13;2.65;;;12.80;99.90;;;;;;5032742;28;20037;-62
2023/02/21 10:46:26;;;;;;;2.70;2.50;;;12.90;99.90;;;;;;5034228;28;20544;-63
2023/02/21 10:49:12;;;;;;;5.28;4.78;;;13.00;99.90;;;;;;5030482;28;20040;-63
2023/02/21 10:51:37;;;;;;;1.92;1.40;;;13.00;99.90;;;;;;5009695;28;20489;-62
2023/02/21 10:54:24;;;;;;;4.40;3.15;;;13.10;99.90;;;;;;5034082;28;20122;-62
2023/02/21 10:56:51;;;;;;;4.93;3.50;;;13.20;99.90;;;;;;5029704;28;20068;-62
2023/02/21 10:59:41;;;;;;;2.08;1.10;;;13.30;99.90;;;;;;5032406;28;20469;-63
2023/02/21 11:02:32;;;;;;;2.40;0.90;;;13.50;99.70;;;;;;5030465;28;20033;-63
2023/02/21 11:05:16;;;;;;;4.18;1.40;;;13.60;99.40;;;;;;5027027;28;20047;-62
2023/02/21 11:07:58;;;;;;;1.83;1.02;;;13.70;98.90;;;;;;5030549;28;20087;-62
2023/02/21 11:10:36;;;;;;;2.88;1.50;;;13.70;98.80;;;;;;5032997;28;20044;-62
2023/02/21 11:13:16;;;;;;;2.42;0.80;;;13.70;98.90;;;;;;5029505;28;20049;-63
2023/02/21 11:15:44;;;;;;;2.05;0.80;;;13.80;98.50;;;;;;5036614;28;20037;-63
2023/02/21 11:18:23;;;;;;;1.27;1.02;;;13.80;97.90;;;;;;5034170;28;20115;-63
2023/02/21 11:20:50;;;;;;;1.25;0.70;;;13.60;97.70;;;;;;5036760;28;20356;-62
2023/02/21 11:23:23;;;;;;;2.35;1.20;;;13.50;97.90;;;;;;5034983;28;20036;-62
2023/02/21 11:25:57;;;;;;;2.10;0.90;;;13.50;97.90;;;;;;5034864;28;20037;-63
2023/02/21 11:28:23;;;;;;;3.85;0.73;;;13.40;98.20;;;;;;5036611;28;20032;-63
2023/02/21 11:31:01;;;;;;;2.38;1.10;;;13.40;98.30;;;;;;5031849;28;20473;-63
2023/02/21 11:33:29;;;;;;;3.38;1.85;;;13.40;98.40;;;;;;5027717;28;20033;-63
2023/02/21 11:36:07;;;;;;;2.88;1.13;;;13.50;97.90;;;;;;5029040;28;20021;-63
2023/02/21 11:38:34;;;;;;;1.92;0.70;;;13.50;97.30;;;;;;5028022;28;20095;-62
2023/02/21 11:41:02;;;;;;;3.63;0.95;;;13.30;97.20;;;;;;5031620;28;20094;-62
2023/02/21 11:43:29;;;;;;;1.80;1.05;;;13.30;98.10;;;;;;5025206;28;20080;-62
2023/02/21 11:46:08;;;;;;;4.15;1.13;;;13.40;98.40;;;;;;5026949;28;20087;-63
2023/02/21 11:48:59;;;;;;;5.25;1.58;;;13.40;97.90;;;;;;5028416;28;20555;-62
2023/02/21 11:51:44;;;;;;;2.17;1.10;;;13.50;97.70;;;;;;5032930;28;20037;-63
2023/02/21 11:54:10;;;;;;;3.40;1.05;;;13.70;97.70;;;;;;5029401;28;20048;-62
2023/02/21 11:56:51;;;;;;;3.00;0.82;;;13.80;97.30;;;;;;5030439;28;20041;-63
2023/02/21 11:59:29;;;;;;;3.58;1.20;;;14.00;96.80;;;;;;5033833;28;20429;-63
2023/02/21 12:02:13;;;;;;;3.15;1.60;;;14.10;96.50;;;;;;5030984;28;20034;-63
2023/02/21 12:04:57;;;;;;;1.30;0.77;;;14.20;96.10;;;;;;5028503;28;20103;-62
2023/02/21 12:07:39;;;;;;;1.92;1.13;;;14.30;95.40;;;;;;5033121;28;20041;-63
2023/02/21 12:10:32;;;;;;;1.60;0.68;;;14.30;95.30;;;;;;5031876;28;20053;-63
2023/02/21 12:12:58;;;;;;;1.10;0.60;;;14.30;94.90;;;;;;5030574;28;20052;-62
2023/02/21 12:15:30;;;;;;;2.83;1.27;;;14.30;94.80;;;;;;5031854;28;20639;-63
2023/02/21 12:18:33;;;;;;;2.13;0.57;;;14.30;95.20;;;;;;5034257;28;20034;-63
2023/02/21 12:21:33;;;;;;;1.52;0.52;;;14.40;94.80;;;;;;5035354;28;20052;-63
2023/02/21 12:24:27;;;;;;;1.73;0.70;;;14.40;94.60;;;;;;5037217;28;20030;-63
2023/02/21 12:27:12;;;;;;;1.35;0.60;;;14.40;94.40;;;;;;5036924;28;20033;-62
2023/02/21 12:29:44;;;;;;;2.15;0.70;;;14.10;93.40;;;;;;5033225;28;20056;-63
2023/02/21 12:32:32;;;;;;;1.30;0.82;;;14.10;93.90;;;;;;5033895;28;20177;-63
2023/02/21 12:35:13;;;;;;;1.38;0.50;;;14.00;94.20;;;;;;5037369;28;20029;-63
2023/02/21 12:38:06;;;;;;;1.67;0.80;;;13.90;94.50;;;;;;5031743;28;20033;-63
2023/02/21 12:41:05;;;;;;;1.65;0.65;;;14.00;94.20;;;;;;5031090;28;20078;-63
2023/02/21 12:44:08;;;;;;;2.38;0.60;;;13.90;93.60;;;;;;5030147;28;20032;-63
2023/02/21 12:46:52;;;;;;;3.00;1.23;;;13.90;93.80;;;;;;5031905;28;20033;-63
2023/02/21 12:49:34;;;;;;;1.67;1.15;;;13.80;93.40;;;;;;5033632;28;20029;-62
2023/02/21 12:52:29;;;;;;;1.25;0.68;;;13.80;93.20;;;;;;5035124;28;20033;-63
2023/02/21 12:54:58;;;;;;;2.45;0.40;;;13.80;93.40;;;;;;5001418;28;20040;-62
2023/02/21 12:57:42;;;;;;;1.60;0.95;;;13.80;93.30;;;;;;5030512;28;20687;-63
2023/02/21 13:00:16;;;;;;;2.60;1.13;;;13.80;93.80;;;;;;5036732;28;20111;-63
2023/02/21 13:03:23;;;;;;;0.52;0.50;;;13.80;93.70;;;;;;5033112;28;20064;-63
2023/02/21 13:06:01;;;;;;;2.50;0.63;;;13.70;94.20;;;;;;4940812;28;20079;-62
2023/02/21 13:08:32;;;;;;;3.65;0.65;;;13.70;94.20;;;;;;5032656;28;20037;-62
2023/02/21 13:11:07;;;;;;;2.78;0.88;;;13.70;94.70;;;;;;5033685;28;20111;-63
2023/02/21 13:13:33;;;;;;;1.15;0.65;;;13.80;94.30;;;;;;5032489;28;20135;-63
2023/02/21 13:16:11;;;;;;;0.68;0.50;;;13.80;93.60;;;;;;5033241;28;20029;-63
2023/02/21 13:18:45;;;;;;;2.45;0.68;;;13.80;94.40;;;;;;5033605;28;20118;-63
2023/02/21 13:21:36;;;;;;;4.13;0.65;;;13.90;94.40;;;;;;5031315;28;20057;-63
2023/02/21 13:24:28;;;;;;;3.15;0.63;;;14.00;94.00;;;;;;5034291;28;20044;-64
2023/02/21 13:27:17;;;;;;;0.47;0.40;;;14.00;93.80;;;;;;5031490;28;20136;-63
2023/02/21 13:29:43;;;;;;;1.25;0.30;;;14.20;93.70;;;;;;5030722;28;20116;-63
2023/02/21 13:32:13;;;;;;;1.83;0.63;;;14.20;93.70;;;;;;5032362;28;20625;-63
2023/02/21 13:34:59;;;;;;;2.78;0.30;;;14.30;93.90;;;;;;5011843;28;20945;-64
2023/02/21 13:37:27;;;;;;;;;;;14.20;93.50;;;;;;5034534;28;20370;-64
2023/02/21 13:40:08;;;;;;;0.43;0.30;;;14.30;94.00;;;;;;5031937;28;19924;-64
2023/02/21 13:42:37;;;;;;;0.68;0.40;;;14.40;94.20;;;;;;5017588;28;20033;-64
2023/02/21 13:45:12;;;;;;;1.58;0.50;;;14.50;93.30;;;;;;5031559;28;20029;-63
2023/02/21 13:48:00;;;;;;;1.05;0.30;;;14.60;93.40;;;;;;5035120;28;20043;-63
2023/02/21 13:50:38;;;;;;;3.38;0.40;;;14.70;93.10;;;;;;5018188;28;20146;-63
2023/02/21 13:53:07;;;;;;;1.52;0.52;;;14.70;93.10;;;;;;5032136;28;20037;-63
2023/02/21 13:55:36;;;;;;;2.20;0.70;;;14.70;93.30;;;;;;5035346;28;20033;-63
2023/02/21 13:58:03;;;;;;;2.45;0.90;;;14.70;91.90;;;;;;5030774;28;20033;-63
2023/02/21 14:00:29;;;;;;;2.03;0.60;;;14.60;92.10;;;;;;5030636;28;20036;-62
2023/02/21 14:03:04;;;;;;;1.48;0.35;;;14.50;92.30;;;;;;5032964;28;20025;-63
2023/02/21 14:05:51;;;;;;;0.30;0.30;;;14.40;92.60;;;;;;5030875;28;20064;-63
2023/02/21 14:08:42;;;;;;;2.40;0.40;;;14.40;92.30;;;;;;5033027;28;20106;-62
2023/02/21 14:11:13;;;;;;;0.28;0.28;;;14.30;90.80;;;;;;5032031;28;20068;-62
2023/02/21 14:13:45;;;;;;;0.82;0.60;;;14.20;91.60;;;;;;5036038;28;20140;-62
2023/02/21 14:16:17;;;;;;;0.73;0.20;;;14.10;92.20;;;;;;5032899;28;20068;-63
2023/02/21 14:19:07;;;;;;;1.27;0.50;;;14.10;92.30;;;;;;5026463;28;20030;-62
2023/02/21 14:21:49;;;;;;;1.75;0.60;;;14.10;92.40;;;;;;5027928;28;20032;-62
2023/02/21 14:24:21;;;;;;;0.55;0.40;;;14.00;92.40;;;;;;5034803;28;20797;-62
2023/02/21 14:27:11;;;;;;;1.50;0.60;;;14.00;92.60;;;;;;5031306;28;20041;-62
2023/02/21 14:29:42;;;;;;;1.08;0.93;;;14.00;92.60;;;;;;5034264;28;20447;-62
2023/02/21 14:32:08;;;;;;;3.63;1.25;;;13.90;92.60;;;;;;5033286;28;20053;-62
2023/02/21 14:34:48;;;;;;;2.60;1.20;;;13.90;92.70;;;;;;5030052;28;20564;-62
2023/02/21 14:37:42;;;;;;;4.80;2.25;;;13.90;92.80;;;;;;5005779;28;20037;-62
2023/02/21 14:40:20;;;;;;;2.15;0.77;;;13.90;93.00;;;;;;5032170;28;20036;-62
2023/02/21 14:43:17;;;;;;;0.90;0.90;;;13.80;92.70;;;;;;5027568;28;20073;-62
2023/02/21 14:46:11;;;;;;;6.07;3.33;;;13.70;93.10;;;;;;5029733;28;20029;-62
2023/02/21 14:48:59;;;;;;;3.13;1.05;;;13.70;93.30;;;;;;5028901;28;20080;-63
2023/02/21 14:51:37;;;;;;;1.85;1.35;;;13.70;92.80;;;;;;5029150;28;20647;-63
2023/02/21 14:54:38;;;;;;;1.77;1.10;;;13.60;93.30;;;;;;5033724;28;20040;-62
2023/02/21 14:57:33;;;;;;;1.73;0.98;;;13.50;93.70;;;;;;4993215;28;20164;-62
2023/02/21 15:00:17;;;;;;;1.58;0.80;;;13.40;93.60;;;;;;5033359;28;20107;-62
2023/02/21 15:03:02;;;;;;;1.27;0.60;;;13.40;94.10;;;;;;5033525;28;20037;-62
2023/02/21 15:05:36;;;;;;;0.68;0.40;;;13.30;94.40;;;;;;5025994;28;20033;-62
2023/02/21 15:08:18;;;;;;;1.55;0.98;;;13.30;94.40;;;;;;5033700;28;20037;-62
2023/02/21 15:10:46;;;;;;;1.00;0.43;;;13.20;94.80;;;;;;5023166;28;20065;-62
2023/02/21 15:13:23;;;;;;;0.95;0.38;;;13.20;94.30;;;;;;5035535;28;20040;-63
2023/02/21 15:15:56;;;;;;;0.93;0.77;;;13.10;94.20;;;;;;5031499;28;20056;-62
2023/02/21 15:18:34;;;;;;;1.10;0.70;;;13.10;94.40;;;;;;5026212;28;20072;-62
2023/02/21 15:21:09;;;;;;;0.85;0.70;;;13.00;94.70;;;;;;5029918;28;20083;-62
2023/02/21 15:23:39;;;;;;;2.60;0.57;;;13.00;94.80;;;;;;5031500;28;20056;-62
2023/02/21 15:26:28;;;;;;;1.15;0.60;;;13.00;94.80;;;;;;5035504;28;20064;-62